Terminal Aerodrome Forecast
Issued by NWS

Home | Current Version | Previous Version | Text Only | Print | Product List | Glossary On
Versions: 1 2 3 4 5 6 7 8 9 10 11 12 13
000
FTUS45 KTFX 272300
TAFHVR
TAF
KHVR 272329Z 2800/2824 31012KT P6SM VCSH BKN040
      TEMPO 2800/2803 3SM -SN BR BKN020
     FM280300 02010KT 6SM -SHSN BR SCT010 BKN025
     FM281100 VRB05KT P6SM VCSH SCT020 BKN040
     FM281400 27005KT P6SM BKN070=

USA.gov is the U.S. government's official web portal to all federal, state and local government web resources and services.